Time;durP1;ratioP1;P1;durP2;ratioP2;P2;SDS_P1;SDS_P2;PMS_P1;PMS_P2;Temp;Humidity;BMP_temperature;BMP_pressure;BME280_temperature;BME280_humidity;BME280_pressure;Samples;Min_cycle;Max_cycle;Signal;HPM_P1;HPM_P2
2022/04/25 00:01:22;;;;;;;33.30;22.70;;;;;;;;;;10423386;28;20493;-78
2022/04/25 00:06:22;;;;;;;30.52;20.90;;;;;;;;;;10378911;28;20045;-77
2022/04/25 00:11:23;;;;;;;31.13;21.10;;;;;;;;;;10381014;28;20049;-78
2022/04/25 00:16:24;;;;;;;28.60;20.30;;;;;;;;;;10379949;28;20034;-81
2022/04/25 00:21:26;;;;;;;25.42;17.85;;;;;;;;;;10408279;28;20580;-78
2022/04/25 00:26:28;;;;;;;25.58;18.50;;;;;;;;;;10399775;28;20064;-77
2022/04/25 00:31:28;;;;;;;19.85;15.07;;;;;;;;;;10391760;28;20111;-77
2022/04/25 00:36:29;;;;;;;21.50;15.43;;;;;;;;;;10396312;28;20061;-77
2022/04/25 00:41:36;;;;;;;24.20;16.60;;;;;;;;;;10387719;28;20057;-81
2022/04/25 00:46:37;;;;;;;19.33;15.48;;;;;;;;;;10364212;28;20053;-77
2022/04/25 00:51:37;;;;;;;21.30;16.08;;;;;;;;;;10415097;28;20037;-77
2022/04/25 00:56:38;;;;;;;19.52;13.93;;;;;;;;;;10393377;28;20069;-77
2022/04/25 01:01:40;;;;;;;18.63;14.15;;;;;;;;;;10415713;28;20050;-77
2022/04/25 01:06:40;;;;;;;18.38;13.55;;;;;;;;;;10379699;28;20045;-78
2022/04/25 01:11:43;;;;;;;16.70;13.10;;;;;;;;;;10405423;28;20412;-78
2022/04/25 01:16:44;;;;;;;;;;;;;;;;;;10417260;28;20735;-77
2022/04/25 01:21:50;;;;;;;19.20;14.13;;;;;;;;;;10409049;28;19901;-78
2022/04/25 01:32:11;;;;;;;17.77;13.15;;;;;;;;;;10391283;28;20065;-78
2022/04/25 01:37:12;;;;;;;15.45;12.30;;;;;;;;;;10437984;28;20056;-78
2022/04/25 01:42:14;;;;;;;18.67;12.77;;;;;;;;;;10414134;28;20055;-78
2022/04/25 01:47:16;;;;;;;18.07;13.07;;;;;;;;;;10408261;28;20105;-77
2022/04/25 01:52:19;;;;;;;18.33;13.32;;;;;;;;;;10398705;28;20416;-78
2022/04/25 01:57:20;;;;;;;16.02;12.68;;;;;;;;;;10404838;28;20049;-78
2022/04/25 02:02:23;;;;;;;17.88;11.93;;;;;;;;;;10413079;28;20064;-78
2022/04/25 02:07:24;;;;;;;;;;;;;;;;;;10403488;28;20045;-76
2022/04/25 02:12:24;;;;;;;17.60;13.35;;;;;;;;;;10423855;28;19937;-77
2022/04/25 02:17:25;;;;;;;18.35;14.60;;;;;;;;;;10410125;28;20057;-77
2022/04/25 02:22:25;;;;;;;21.98;15.93;;;;;;;;;;10401649;28;20053;-76
2022/04/25 02:27:25;;;;;;;17.50;13.43;;;;;;;;;;10422021;28;20045;-77
2022/04/25 02:32:27;;;;;;;18.10;13.80;;;;;;;;;;10349455;28;20374;-76
2022/04/25 02:37:29;;;;;;;19.38;14.32;;;;;;;;;;10401543;28;20116;-76
2022/04/25 02:42:29;;;;;;;23.38;16.50;;;;;;;;;;10394517;28;20085;-76
2022/04/25 02:47:32;;;;;;;20.80;15.33;;;;;;;;;;10402672;28;20105;-77
2022/04/25 02:52:33;;;;;;;22.45;15.77;;;;;;;;;;10417848;28;20300;-78
2022/04/25 02:57:33;;;;;;;21.45;15.60;;;;;;;;;;10425191;28;20048;-78
2022/04/25 03:02:34;;;;;;;21.38;15.73;;;;;;;;;;10453222;28;20052;-77
2022/04/25 03:07:36;;;;;;;20.43;14.70;;;;;;;;;;10384096;28;20167;-77
2022/04/25 03:12:38;;;;;;;19.50;14.47;;;;;;;;;;10413435;28;20416;-78
2022/04/25 03:17:38;;;;;;;20.20;14.23;;;;;;;;;;10422690;28;20051;-79
2022/04/25 03:22:40;;;;;;;20.75;14.90;;;;;;;;;;10432430;28;20386;-81
2022/04/25 03:27:40;;;;;;;18.88;14.23;;;;;;;;;;10406111;28;20132;-79
2022/04/25 03:32:46;;;;;;;20.00;14.32;;;;;;;;;;10435840;28;20062;-81
2022/04/25 03:38:12;;;;;;;17.60;13.55;;;;;;;;;;10401914;28;20063;-82
2022/04/25 03:43:15;;;;;;;20.58;15.27;;;;;;;;;;10408317;28;20034;-80
2022/04/25 03:48:18;;;;;;;20.23;15.38;;;;;;;;;;10427712;28;20533;-78
2022/04/25 03:53:18;;;;;;;19.83;14.60;;;;;;;;;;10417125;28;20073;-78
2022/04/25 03:58:19;;;;;;;23.00;16.50;;;;;;;;;;10402292;28;20270;-77
2022/04/25 04:03:19;;;;;;;20.25;15.02;;;;;;;;;;10427990;28;20050;-76
2022/04/25 04:08:20;;;;;;;17.20;13.15;;;;;;;;;;10403386;28;20457;-77
2022/04/25 04:13:21;;;;;;;20.73;14.85;;;;;;;;;;10437625;28;20095;-77
2022/04/25 04:18:23;;;;;;;17.38;12.90;;;;;;;;;;10403858;28;20042;-78
2022/04/25 04:23:26;;;;;;;18.30;14.00;;;;;;;;;;10382871;28;20049;-77
2022/04/25 04:28:27;;;;;;;19.33;14.90;;;;;;;;;;10434575;28;20122;-78
2022/04/25 04:33:28;;;;;;;17.63;14.38;;;;;;;;;;10451648;28;20111;-78
2022/04/25 04:38:28;;;;;;;19.38;14.25;;;;;;;;;;10401918;28;20029;-78
2022/04/25 04:43:29;;;;;;;18.73;14.07;;;;;;;;;;10422529;28;20139;-76
2022/04/25 04:48:29;;;;;;;18.07;13.80;;;;;;;;;;10423064;28;20079;-78
2022/04/25 04:53:29;;;;;;;16.20;12.77;;;;;;;;;;10423568;28;20411;-77
2022/04/25 04:58:30;;;;;;;17.73;14.10;;;;;;;;;;10416984;28;20033;-76
2022/04/25 05:03:31;;;;;;;18.25;14.13;;;;;;;;;;10440155;28;20288;-76
2022/04/25 05:08:32;;;;;;;19.73;14.25;;;;;;;;;;10386010;28;20049;-76
2022/04/25 05:13:33;;;;;;;19.57;14.20;;;;;;;;;;10404737;28;20148;-74
2022/04/25 05:18:33;;;;;;;18.38;14.35;;;;;;;;;;10429117;28;20291;-76
2022/04/25 05:23:33;;;;;;;16.52;13.60;;;;;;;;;;10418930;28;20057;-75
2022/04/25 05:28:34;;;;;;;17.48;13.13;;;;;;;;;;10418559;28;20110;-77
2022/04/25 05:33:35;;;;;;;16.40;12.82;;;;;;;;;;10407135;28;20088;-75
2022/04/25 05:38:37;;;;;;;16.58;13.10;;;;;;;;;;10407898;28;20400;-77
2022/04/25 05:43:38;;;;;;;18.63;14.05;;;;;;;;;;10414984;28;20097;-77
2022/04/25 05:53:58;;;;;;;21.02;15.60;;;;;;;;;;10401657;28;20061;-80
2022/04/25 05:58:58;;;;;;;21.55;15.85;;;;;;;;;;10397012;28;20784;-76
2022/04/25 06:03:59;;;;;;;17.70;13.63;;;;;;;;;;10412656;28;20046;-77
2022/04/25 06:09:01;;;;;;;21.02;16.38;;;;;;;;;;10395946;28;20125;-76
2022/04/25 06:14:02;;;;;;;20.75;14.88;;;;;;;;;;10400257;28;20045;-76
2022/04/25 06:19:02;;;;;;;20.08;14.73;;;;;;;;;;10429559;28;20045;-78
2022/04/25 06:24:05;;;;;;;21.70;14.10;;;;;;;;;;10402589;28;20046;-79
2022/04/25 06:29:06;;;;;;;20.08;14.68;;;;;;;;;;10410215;28;20121;-77
2022/04/25 06:34:06;;;;;;;22.73;15.67;;;;;;;;;;10406929;28;20076;-78
2022/04/25 06:39:07;;;;;;;21.63;15.75;;;;;;;;;;10427728;28;20041;-77
2022/04/25 06:44:17;;;;;;;21.08;16.20;;;;;;;;;;10425562;28;20064;-81
2022/04/25 06:49:25;;;;;;;22.40;16.13;;;;;;;;;;10378913;28;20086;-80
2022/04/25 06:54:28;;;;;;;24.25;17.75;;;;;;;;;;10429370;28;20160;-80
2022/04/25 06:59:30;;;;;;;22.43;16.47;;;;;;;;;;10415150;28;20057;-78
2022/04/25 07:04:33;;;;;;;19.70;15.27;;;;;;;;;;10430450;28;20327;-80
2022/04/25 07:09:34;;;;;;;;;;;;;;;;;;10421663;28;20062;-79
2022/04/25 07:14:35;;;;;;;18.17;14.77;;;;;;;;;;10374621;28;19956;-79
2022/04/25 07:19:39;;;;;;;21.73;16.20;;;;;;;;;;10422966;28;20053;-79
2022/04/25 07:30:07;;;;;;;22.63;15.90;;;;;;;;;;10414656;28;20055;-78
2022/04/25 07:35:09;;;;;;;22.87;15.70;;;;;;;;;;10417974;28;20163;-78
2022/04/25 07:40:14;;;;;;;17.80;13.98;;;;;;;;;;10434939;28;20264;-81
2022/04/25 07:45:15;;;;;;;18.20;14.40;;;;;;;;;;10453002;28;20045;-80
2022/04/25 07:50:16;;;;;;;19.95;15.15;;;;;;;;;;10410296;28;20045;-80
2022/04/25 07:55:17;;;;;;;20.33;14.10;;;;;;;;;;10452797;28;20060;-78
2022/04/25 08:00:21;;;;;;;17.33;12.88;;;;;;;;;;10450046;28;20823;-79
2022/04/25 08:05:27;;;;;;;16.13;12.20;;;;;;;;;;10433589;28;20053;-79
2022/04/25 08:10:28;;;;;;;16.90;13.55;;;;;;;;;;10410061;28;20072;-80
2022/04/25 08:20:50;;;;;;;16.83;13.38;;;;;;;;;;10430263;28;20092;-79
2022/04/25 08:25:52;;;;;;;15.68;12.90;;;;;;;;;;10427079;28;20053;-79
2022/04/25 08:30:54;;;;;;;18.23;12.95;;;;;;;;;;10421721;28;20037;-78
2022/04/25 08:35:56;;;;;;;15.63;13.07;;;;;;;;;;10398417;28;20081;-78
2022/04/25 08:40:57;;;;;;;16.35;12.45;;;;;;;;;;10438702;28;20111;-79
2022/04/25 08:45:59;;;;;;;12.68;11.38;;;;;;;;;;10450690;28;20059;-79
2022/04/25 08:51:00;;;;;;;14.55;11.65;;;;;;;;;;10430743;28;20045;-78
2022/04/25 08:56:04;;;;;;;14.80;12.02;;;;;;;;;;10410318;28;20151;-79
2022/04/25 09:01:10;;;;;;;12.13;9.98;;;;;;;;;;10415783;28;20042;-80
2022/04/25 09:06:11;;;;;;;11.52;10.32;;;;;;;;;;10391135;28;20850;-78
2022/04/25 09:16:32;;;;;;;10.25;9.18;;;;;;;;;;10408611;28;20299;-78
2022/04/25 09:21:46;;;;;;;10.93;9.02;;;;;;;;;;10386502;28;20068;-79
2022/04/25 09:26:49;;;;;;;14.30;10.73;;;;;;;;;;10392448;28;20541;-79
2022/04/25 09:31:50;;;;;;;10.98;9.23;;;;;;;;;;10392937;28;20128;-78
2022/04/25 09:36:55;;;;;;;10.83;9.27;;;;;;;;;;10397847;28;20042;-80
2022/04/25 09:42:00;;;;;;;10.18;9.18;;;;;;;;;;10428179;28;20105;-78
2022/04/25 09:47:03;;;;;;;9.30;8.30;;;;;;;;;;10408796;28;20041;-78
2022/04/25 09:52:04;;;;;;;9.32;7.80;;;;;;;;;;10390857;28;20114;-76
2022/04/25 09:57:10;;;;;;;8.10;6.80;;;;;;;;;;10408532;28;20033;-79
2022/04/25 10:02:11;;;;;;;8.75;7.78;;;;;;;;;;10412536;28;20045;-77
2022/04/25 10:07:11;;;;;;;8.43;7.50;;;;;;;;;;10397775;28;20064;-78
2022/04/25 10:12:12;;;;;;;9.00;7.32;;;;;;;;;;10372473;28;20057;-78
2022/04/25 10:17:14;;;;;;;6.90;6.22;;;;;;;;;;10425076;28;20061;-78
2022/04/25 10:22:15;;;;;;;9.55;7.07;;;;;;;;;;10419588;28;20041;-79
2022/04/25 10:27:17;;;;;;;7.40;6.68;;;;;;;;;;10415871;28;20144;-77
2022/04/25 10:32:20;;;;;;;8.73;7.05;;;;;;;;;;10422616;28;20157;-78
2022/04/25 10:37:34;;;;;;;6.07;5.47;;;;;;;;;;10414015;28;20037;-78
2022/04/25 10:48:54;;;;;;;5.03;4.53;;;;;;;;;;10326618;28;20068;-77
2022/04/25 10:53:55;;;;;;;7.00;5.68;;;;;;;;;;10449199;28;20081;-78
2022/04/25 10:59:15;;;;;;;5.20;4.70;;;;;;;;;;10417691;28;20057;-78
2022/04/25 11:04:16;;;;;;;5.30;4.80;;;;;;;;;;10422114;28;20176;-79
2022/04/25 11:09:39;;;;;;;5.43;4.93;;;;;;;;;;10441834;28;20117;-78
2022/04/25 11:14:57;;;;;;;5.57;5.05;;;;;;;;;;10435922;28;20108;-79
2022/04/25 11:19:57;;;;;;;6.38;5.53;;;;;;;;;;10450724;28;20048;-79
2022/04/25 11:25:16;;;;;;;6.15;5.45;;;;;;;;;;10453190;28;20025;-79
2022/04/25 11:30:20;;;;;;;6.60;5.90;;;;;;;;;;10453426;28;20049;-80
2022/04/25 11:35:25;;;;;;;7.13;6.20;;;;;;;;;;10434342;28;20053;-79
2022/04/25 11:40:28;;;;;;;6.57;5.90;;;;;;;;;;10450935;28;20064;-81
2022/04/25 11:45:29;;;;;;;7.60;5.15;;;;;;;;;;10381797;28;20144;-79
2022/04/25 11:50:38;;;;;;;6.88;5.72;;;;;;;;;;10445832;28;20049;-78
2022/04/25 11:55:39;;;;;;;5.55;5.05;;;;;;;;;;10445393;28;20040;-77
2022/04/25 12:00:42;;;;;;;6.22;5.57;;;;;;;;;;10417102;28;20041;-78
2022/04/25 12:05:43;;;;;;;7.35;6.30;;;;;;;;;;10462054;28;20040;-77
2022/04/25 12:16:07;;;;;;;5.78;5.28;;;;;;;;;;10456550;28;20044;-79
2022/04/25 12:21:12;;;;;;;5.55;5.00;;;;;;;;;;10412974;28;20635;-79
2022/04/25 12:26:18;;;;;;;5.75;5.20;;;;;;;;;;10456050;28;20049;-79
2022/04/25 12:31:22;;;;;;;5.15;4.65;;;;;;;;;;10398701;28;20134;-79
2022/04/25 12:36:24;;;;;;;5.95;4.93;;;;;;;;;;10456028;28;20045;-81
2022/04/25 12:41:50;;;;;;;5.85;5.00;;;;;;;;;;10422950;28;20114;-81
2022/04/25 12:46:53;;;;;;;5.00;4.50;;;;;;;;;;10429967;28;20121;-80
2022/04/25 12:52:04;;;;;;;5.55;4.97;;;;;;;;;;10445060;28;20037;-80
2022/04/25 12:57:30;;;;;;;5.32;4.82;;;;;;;;;;10434945;28;20056;-81
2022/04/25 13:02:37;;;;;;;4.70;4.30;;;;;;;;;;10409630;28;20030;-81
2022/04/25 13:07:42;;;;;;;;;;;;;;;;;;10415215;28;20045;-80
2022/04/25 13:12:44;;;;;;;4.68;4.28;;;;;;;;;;10420517;28;20251;-80
2022/04/25 13:17:45;;;;;;;5.50;5.00;;;;;;;;;;10401447;28;20374;-82
2022/04/25 13:22:48;;;;;;;5.07;4.60;;;;;;;;;;10416803;28;20033;-80
2022/04/25 13:27:52;;;;;;;5.00;4.50;;;;;;;;;;10432293;28;20109;-80
2022/04/25 13:32:55;;;;;;;5.93;4.40;;;;;;;;;;10426287;28;20194;-80
2022/04/25 13:37:55;;;;;;;5.13;4.63;;;;;;;;;;10412727;28;20053;-78
2022/04/25 13:42:57;;;;;;;4.97;3.90;;;;;;;;;;10393792;28;20114;-80
2022/04/25 13:47:58;;;;;;;4.30;3.90;;;;;;;;;;10418477;28;20288;-80
2022/04/25 13:53:10;;;;;;;4.90;4.50;;;;;;;;;;10383748;28;20141;-79
2022/04/25 13:58:11;;;;;;;5.07;4.68;;;;;;;;;;10366808;28;20231;-79
2022/04/25 14:03:21;;;;;;;4.50;4.10;;;;;;;;;;10386026;28;20041;-81
2022/04/25 14:08:24;;;;;;;5.10;4.40;;;;;;;;;;10413504;28;20053;-81
2022/04/25 14:13:30;;;;;;;4.00;3.70;;;;;;;;;;10437492;28;20065;-80
2022/04/25 14:18:32;;;;;;;3.95;3.53;;;;;;;;;;10406852;28;20275;-81
2022/04/25 14:23:33;;;;;;;3.45;3.15;;;;;;;;;;10391078;28;20069;-82
2022/04/25 14:28:33;;;;;;;3.60;3.30;;;;;;;;;;10389315;28;20132;-81
2022/04/25 14:33:37;;;;;;;3.55;3.25;;;;;;;;;;10406451;28;20057;-82
2022/04/25 14:38:40;;;;;;;3.78;3.47;;;;;;;;;;10434488;28;20069;-79
2022/04/25 14:43:44;;;;;;;3.90;3.58;;;;;;;;;;10431027;28;20058;-81
2022/04/25 14:48:46;;;;;;;3.58;3.28;;;;;;;;;;10402822;28;20049;-81
2022/04/25 14:59:07;;;;;;;2.88;2.67;;;;;;;;;;10439654;28;20268;-82
2022/04/25 15:04:40;;;;;;;2.78;2.58;;;;;;;;;;10435603;28;20041;-78
2022/04/25 15:09:44;;;;;;;2.90;2.70;;;;;;;;;;10389486;28;20101;-78
2022/04/25 15:14:50;;;;;;;2.80;2.60;;;;;;;;;;10438418;28;20283;-80
2022/04/25 15:19:57;;;;;;;3.00;2.80;;;;;;;;;;10389735;28;20055;-81
2022/04/25 15:24:58;;;;;;;3.65;2.72;;;;;;;;;;10434241;28;20044;-80
2022/04/25 15:30:01;;;;;;;3.85;2.90;;;;;;;;;;10429069;28;20037;-79
2022/04/25 15:35:01;;;;;;;3.17;2.90;;;;;;;;;;10436333;28;20395;-79
2022/04/25 15:40:02;;;;;;;3.30;3.03;;;;;;;;;;10426508;28;20033;-79
2022/04/25 15:45:03;;;;;;;3.95;3.55;;;;;;;;;;10427321;28;20560;-79
2022/04/25 15:50:05;;;;;;;3.60;3.13;;;;;;;;;;10422162;28;20107;-79
2022/04/25 16:00:26;;;;;;;3.50;2.88;;;;;;;;;;10402463;28;20045;-79
2022/04/25 16:05:27;;;;;;;2.97;2.77;;;;;;;;;;10400650;28;20053;-78
2022/04/25 16:10:27;;;;;;;3.35;3.00;;;;;;;;;;10380874;28;20325;-78
2022/04/25 16:15:27;;;;;;;3.20;2.90;;;;;;;;;;10376718;28;20090;-80
2022/04/25 16:20:30;;;;;;;2.75;2.55;;;;;;;;;;10439259;28;20053;-78
2022/04/25 16:25:30;;;;;;;3.22;2.92;;;;;;;;;;10376404;28;20119;-78
2022/04/25 16:30:32;;;;;;;3.07;2.87;;;;;;;;;;10392127;28;20440;-78
2022/04/25 16:35:33;;;;;;;3.00;2.70;;;;;;;;;;10400101;28;20084;-80
2022/04/25 16:40:36;;;;;;;3.40;3.10;;;;;;;;;;10405630;28;20048;-79
2022/04/25 16:45:36;;;;;;;3.40;3.10;;;;;;;;;;10439722;28;20139;-79
2022/04/25 16:50:37;;;;;;;3.30;3.00;;;;;;;;;;10431063;28;20060;-80
2022/04/25 16:55:38;;;;;;;3.50;3.20;;;;;;;;;;10379580;28;20054;-78
2022/04/25 17:00:41;;;;;;;3.23;2.93;;;;;;;;;;10402687;28;21084;-79
2022/04/25 17:05:43;;;;;;;3.50;3.20;;;;;;;;;;10403538;28;20042;-81
2022/04/25 17:10:43;;;;;;;3.40;3.10;;;;;;;;;;10375854;28;20104;-80
2022/04/25 17:15:52;;;;;;;3.22;2.92;;;;;;;;;;10407818;28;20053;-80
2022/04/25 17:20:58;;;;;;;3.63;3.33;;;;;;;;;;10389348;28;20072;-81
2022/04/25 17:26:00;;;;;;;3.88;2.90;;;;;;;;;;10410543;28;20054;-82
2022/04/25 17:35:20;;;;;;;3.60;3.30;;;;;;;;;;10375359;28;20119;-83
2022/04/25 17:36:25;;;;;;;3.38;3.08;;;;;;;;;;10440789;28;20120;-80
2022/04/25 17:42:13;;;;;;;3.50;3.20;;;;;;;;;;10429844;28;20048;-80
